KVNY/VNY METAR and TAF weather

Enter ICAO airport designator
Station Type Date Time Source
KVNY METAR 2019/04/18 10:51 UTC NOAA

KVNY 181051Z AUTO 30004KT 10SM CLR 14/07 A3009 RMK AO2 SLP184 T01390072


Station Type Date Time Source
KVNY Decoded METAR 2019/04/18 10:51 UTC NOAA

VAN NUYS AIRPORT, CA, United States (KVNY) 34-13N 118-29W 245M
Apr 18, 2019 - 06:51 AM EDT / 2019.04.18 1051 UTC
Wind: from the WNW (300 degrees) at 5 MPH (4 KT):0
Visibility: 10 mile(s):0
Sky conditions: clear
Temperature: 57.0 F (13.9 C)
Dew Point: 45.0 F (7.2 C)
Relative Humidity: 63%
Pressure (altimeter): 30.09 in. Hg (1018 hPa)
ob: KVNY 181051Z AUTO 30004KT 10SM CLR 14/07 A3009 RMK AO2 SLP184 T01390072
cycle: 11

Station Type Date Time Source
KVNY TAF 2019/04/18 06:33 UTC NOAA

TAF KVNY 180531Z 1806/1906 VRB03KT P6SM SCT250
FM182000 14009KT P6SM SCT250
FM190300 VRB03KT P6SM SCT250

Example: see airport list